sensor_id;sensor_type;location;lat;lon;timestamp;temperature;humidity
80743;SHT31;70142;50.894;6.052;2023-06-14T00:01:20;17.97;57.91
80743;SHT31;70142;50.894;6.052;2023-06-14T00:03:54;17.80;59.25
80743;SHT31;70142;50.894;6.052;2023-06-14T00:06:29;17.85;58.49
80743;SHT31;70142;50.894;6.052;2023-06-14T00:09:02;17.92;58.37
80743;SHT31;70142;50.894;6.052;2023-06-14T00:11:36;17.91;58.58
80743;SHT31;70142;50.894;6.052;2023-06-14T00:14:11;17.87;58.33
80743;SHT31;70142;50.894;6.052;2023-06-14T00:16:44;17.64;58.56
80743;SHT31;70142;50.894;6.052;2023-06-14T00:19:17;17.61;58.70
80743;SHT31;70142;50.894;6.052;2023-06-14T00:21:54;17.51;59.13
80743;SHT31;70142;50.894;6.052;2023-06-14T00:24:29;17.40;59.61
80743;SHT31;70142;50.894;6.052;2023-06-14T00:27:02;17.36;59.72
80743;SHT31;70142;50.894;6.052;2023-06-14T00:29:37;17.31;59.82
80743;SHT31;70142;50.894;6.052;2023-06-14T00:32:10;17.24;60.19
80743;SHT31;70142;50.894;6.052;2023-06-14T00:34:43;17.29;60.18
80743;SHT31;70142;50.894;6.052;2023-06-14T00:37:16;17.13;60.74
80743;SHT31;70142;50.894;6.052;2023-06-14T00:39:50;17.13;60.92
80743;SHT31;70142;50.894;6.052;2023-06-14T00:42:24;17.13;61.36
80743;SHT31;70142;50.894;6.052;2023-06-14T00:45:00;17.13;61.31
80743;SHT31;70142;50.894;6.052;2023-06-14T00:47:35;17.10;61.41
80743;SHT31;70142;50.894;6.052;2023-06-14T00:50:11;17.00;61.82
80743;SHT31;70142;50.894;6.052;2023-06-14T00:52:45;16.89;62.17
80743;SHT31;70142;50.894;6.052;2023-06-14T00:55:18;16.89;62.29
80743;SHT31;70142;50.894;6.052;2023-06-14T00:57:53;16.82;62.57
80743;SHT31;70142;50.894;6.052;2023-06-14T01:00:28;16.82;62.60
80743;SHT31;70142;50.894;6.052;2023-06-14T01:03:03;16.83;62.44
80743;SHT31;70142;50.894;6.052;2023-06-14T01:05:37;16.80;62.33
80743;SHT31;70142;50.894;6.052;2023-06-14T01:08:22;16.79;62.13
80743;SHT31;70142;50.894;6.052;2023-06-14T01:11:05;16.66;62.50
80743;SHT31;70142;50.894;6.052;2023-06-14T01:13:44;16.58;62.73
80743;SHT31;70142;50.894;6.052;2023-06-14T01:16:20;16.59;62.86
80743;SHT31;70142;50.894;6.052;2023-06-14T01:18:54;16.51;63.06
80743;SHT31;70142;50.894;6.052;2023-06-14T01:21:28;16.42;63.44
80743;SHT31;70142;50.894;6.052;2023-06-14T01:24:03;16.40;63.89
80743;SHT31;70142;50.894;6.052;2023-06-14T01:26:38;16.47;63.41
80743;SHT31;70142;50.894;6.052;2023-06-14T01:29:18;16.44;63.94
80743;SHT31;70142;50.894;6.052;2023-06-14T01:31:53;16.34;64.65
80743;SHT31;70142;50.894;6.052;2023-06-14T01:34:26;16.24;64.76
80743;SHT31;70142;50.894;6.052;2023-06-14T01:37:01;16.14;64.94
80743;SHT31;70142;50.894;6.052;2023-06-14T01:39:37;16.14;64.48
80743;SHT31;70142;50.894;6.052;2023-06-14T01:42:12;16.15;64.63
80743;SHT31;70142;50.894;6.052;2023-06-14T01:44:47;16.42;64.14
80743;SHT31;70142;50.894;6.052;2023-06-14T01:47:21;16.48;63.44
80743;SHT31;70142;50.894;6.052;2023-06-14T01:49:54;16.36;63.88
80743;SHT31;70142;50.894;6.052;2023-06-14T01:52:28;16.31;64.64
80743;SHT31;70142;50.894;6.052;2023-06-14T01:55:03;16.22;64.78
80743;SHT31;70142;50.894;6.052;2023-06-14T01:57:36;16.26;64.84
80743;SHT31;70142;50.894;6.052;2023-06-14T02:00:11;16.36;64.27
80743;SHT31;70142;50.894;6.052;2023-06-14T02:02:45;16.44;64.79
80743;SHT31;70142;50.894;6.052;2023-06-14T02:05:19;16.36;64.76
80743;SHT31;70142;50.894;6.052;2023-06-14T02:07:52;16.36;64.01
80743;SHT31;70142;50.894;6.052;2023-06-14T02:10:27;16.49;63.68
80743;SHT31;70142;50.894;6.052;2023-06-14T02:13:03;16.38;63.83
80743;SHT31;70142;50.894;6.052;2023-06-14T02:15:36;16.11;64.94
80743;SHT31;70142;50.894;6.052;2023-06-14T02:18:11;16.03;65.63
80743;SHT31;70142;50.894;6.052;2023-06-14T02:20:45;15.97;66.14
80743;SHT31;70142;50.894;6.052;2023-06-14T02:23:18;15.97;66.28
80743;SHT31;70142;50.894;6.052;2023-06-14T02:25:52;15.93;66.13
80743;SHT31;70142;50.894;6.052;2023-06-14T02:28:26;15.98;65.96
80743;SHT31;70142;50.894;6.052;2023-06-14T02:30:59;16.18;64.75
80743;SHT31;70142;50.894;6.052;2023-06-14T02:33:32;16.18;64.55
80743;SHT31;70142;50.894;6.052;2023-06-14T02:36:06;16.13;64.84
80743;SHT31;70142;50.894;6.052;2023-06-14T02:38:39;16.04;64.92
80743;SHT31;70142;50.894;6.052;2023-06-14T02:41:15;16.00;65.13
80743;SHT31;70142;50.894;6.052;2023-06-14T02:43:48;16.00;65.11
80743;SHT31;70142;50.894;6.052;2023-06-14T02:46:21;15.96;65.45
80743;SHT31;70142;50.894;6.052;2023-06-14T02:48:54;15.93;65.50
80743;SHT31;70142;50.894;6.052;2023-06-14T02:51:30;15.79;65.89
80743;SHT31;70142;50.894;6.052;2023-06-14T02:54:03;15.76;65.87
80743;SHT31;70142;50.894;6.052;2023-06-14T02:56:38;15.57;67.75
80743;SHT31;70142;50.894;6.052;2023-06-14T02:59:12;15.54;66.83
80743;SHT31;70142;50.894;6.052;2023-06-14T03:01:47;15.69;66.16
80743;SHT31;70142;50.894;6.052;2023-06-14T03:04:23;15.80;65.91
80743;SHT31;70142;50.894;6.052;2023-06-14T03:06:57;15.70;66.12
80743;SHT31;70142;50.894;6.052;2023-06-14T03:09:32;15.59;66.39
80743;SHT31;70142;50.894;6.052;2023-06-14T03:12:10;15.66;66.10
80743;SHT31;70142;50.894;6.052;2023-06-14T03:14:44;15.77;65.60
80743;SHT31;70142;50.894;6.052;2023-06-14T03:17:20;15.83;65.55
80743;SHT31;70142;50.894;6.052;2023-06-14T03:19:54;15.71;65.93
80743;SHT31;70142;50.894;6.052;2023-06-14T03:22:27;15.57;66.42
80743;SHT31;70142;50.894;6.052;2023-06-14T03:25:01;15.51;66.90
80743;SHT31;70142;50.894;6.052;2023-06-14T03:27:40;15.66;66.14
80743;SHT31;70142;50.894;6.052;2023-06-14T03:30:14;15.60;66.06
80743;SHT31;70142;50.894;6.052;2023-06-14T03:32:51;15.56;66.11
80743;SHT31;70142;50.894;6.052;2023-06-14T03:35:25;15.36;67.05
80743;SHT31;70142;50.894;6.052;2023-06-14T03:37:58;15.35;67.02
80743;SHT31;70142;50.894;6.052;2023-06-14T03:40:31;15.54;66.77
80743;SHT31;70142;50.894;6.052;2023-06-14T03:43:08;15.54;66.51
80743;SHT31;70142;50.894;6.052;2023-06-14T03:45:43;15.60;66.19
80743;SHT31;70142;50.894;6.052;2023-06-14T03:48:17;15.61;66.17
80743;SHT31;70142;50.894;6.052;2023-06-14T03:50:50;15.64;65.84
80743;SHT31;70142;50.894;6.052;2023-06-14T03:53:25;15.57;66.29
80743;SHT31;70142;50.894;6.052;2023-06-14T03:56:00;15.57;66.20
80743;SHT31;70142;50.894;6.052;2023-06-14T03:58:44;15.56;66.60
80743;SHT31;70142;50.894;6.052;2023-06-14T04:01:17;15.59;66.48
80743;SHT31;70142;50.894;6.052;2023-06-14T04:03:50;15.64;66.36
80743;SHT31;70142;50.894;6.052;2023-06-14T04:06:24;15.70;66.26
80743;SHT31;70142;50.894;6.052;2023-06-14T04:09:04;15.57;66.62
80743;SHT31;70142;50.894;6.052;2023-06-14T04:11:37;15.57;66.80
80743;SHT31;70142;50.894;6.052;2023-06-14T04:14:12;15.69;66.67
80743;SHT31;70142;50.894;6.052;2023-06-14T04:16:46;15.96;65.81
80743;SHT31;70142;50.894;6.052;2023-06-14T04:19:22;16.05;65.70
80743;SHT31;70142;50.894;6.052;2023-06-14T04:21:55;16.04;66.14
80743;SHT31;70142;50.894;6.052;2023-06-14T04:24:29;16.62;64.53
80743;SHT31;70142;50.894;6.052;2023-06-14T04:27:04;16.82;64.23
80743;SHT31;70142;50.894;6.052;2023-06-14T04:29:42;16.71;64.66
80743;SHT31;70142;50.894;6.052;2023-06-14T04:32:17;16.62;64.77
80743;SHT31;70142;50.894;6.052;2023-06-14T04:34:50;16.59;65.09
80743;SHT31;70142;50.894;6.052;2023-06-14T04:37:26;16.64;65.01
80743;SHT31;70142;50.894;6.052;2023-06-14T04:40:02;16.71;64.98
80743;SHT31;70142;50.894;6.052;2023-06-14T04:42:43;16.73;64.93
80743;SHT31;70142;50.894;6.052;2023-06-14T04:45:20;16.83;64.95
80743;SHT31;70142;50.894;6.052;2023-06-14T04:47:55;17.46;62.63
80743;SHT31;70142;50.894;6.052;2023-06-14T04:50:32;18.28;60.15
80743;SHT31;70142;50.894;6.052;2023-06-14T04:53:07;18.87;58.70
80743;SHT31;70142;50.894;6.052;2023-06-14T04:55:40;19.41;57.15
80743;SHT31;70142;50.894;6.052;2023-06-14T04:58:17;19.79;54.80
80743;SHT31;70142;50.894;6.052;2023-06-14T05:00:52;20.20;53.43
80743;SHT31;70142;50.894;6.052;2023-06-14T05:03:27;20.66;53.13
80743;SHT31;70142;50.894;6.052;2023-06-14T05:06:03;21.05;52.73
80743;SHT31;70142;50.894;6.052;2023-06-14T05:08:36;21.37;52.08
80743;SHT31;70142;50.894;6.052;2023-06-14T05:11:09;21.71;51.08
80743;SHT31;70142;50.894;6.052;2023-06-14T05:13:43;22.03;49.77
80743;SHT31;70142;50.894;6.052;2023-06-14T05:16:19;22.32;48.43
80743;SHT31;70142;50.894;6.052;2023-06-14T05:18:57;22.26;48.46
80743;SHT31;70142;50.894;6.052;2023-06-14T05:21:31;22.36;48.13
80743;SHT31;70142;50.894;6.052;2023-06-14T05:24:12;22.50;48.09
80743;SHT31;70142;50.894;6.052;2023-06-14T05:26:46;22.78;47.79
80743;SHT31;70142;50.894;6.052;2023-06-14T05:29:20;23.10;47.41
80743;SHT31;70142;50.894;6.052;2023-06-14T05:31:55;23.35;46.56
80743;SHT31;70142;50.894;6.052;2023-06-14T05:34:28;23.22;45.69
80743;SHT31;70142;50.894;6.052;2023-06-14T05:37:01;23.05;46.51
80743;SHT31;70142;50.894;6.052;2023-06-14T05:39:36;23.42;44.61
80743;SHT31;70142;50.894;6.052;2023-06-14T05:42:09;23.41;44.85
80743;SHT31;70142;50.894;6.052;2023-06-14T05:44:42;23.43;44.17
80743;SHT31;70142;50.894;6.052;2023-06-14T05:47:17;23.32;45.26
80743;SHT31;70142;50.894;6.052;2023-06-14T05:49:50;23.31;45.50
80743;SHT31;70142;50.894;6.052;2023-06-14T05:52:23;23.46;44.66
80743;SHT31;70142;50.894;6.052;2023-06-14T05:54:57;23.75;44.12
80743;SHT31;70142;50.894;6.052;2023-06-14T05:57:30;24.06;42.64
80743;SHT31;70142;50.894;6.052;2023-06-14T06:00:05;24.23;41.38
80743;SHT31;70142;50.894;6.052;2023-06-14T06:02:44;24.21;41.15
80743;SHT31;70142;50.894;6.052;2023-06-14T06:05:19;24.23;41.67
80743;SHT31;70142;50.894;6.052;2023-06-14T06:07:52;24.53;40.33
80743;SHT31;70142;50.894;6.052;2023-06-14T06:10:26;24.71;40.86
80743;SHT31;70142;50.894;6.052;2023-06-14T06:12:59;24.46;41.09
80743;SHT31;70142;50.894;6.052;2023-06-14T06:15:33;24.16;41.43
80743;SHT31;70142;50.894;6.052;2023-06-14T06:18:07;23.85;41.49
80743;SHT31;70142;50.894;6.052;2023-06-14T06:20:40;24.10;41.47
80743;SHT31;70142;50.894;6.052;2023-06-14T06:23:14;24.33;40.64
80743;SHT31;70142;50.894;6.052;2023-06-14T06:25:47;24.38;40.55
80743;SHT31;70142;50.894;6.052;2023-06-14T06:28:20;24.34;40.63
80743;SHT31;70142;50.894;6.052;2023-06-14T06:30:53;24.50;40.71
80743;SHT31;70142;50.894;6.052;2023-06-14T06:33:28;24.26;40.60
80743;SHT31;70142;50.894;6.052;2023-06-14T06:36:01;24.56;39.27
80743;SHT31;70142;50.894;6.052;2023-06-14T06:38:34;24.40;39.80
80743;SHT31;70142;50.894;6.052;2023-06-14T06:41:08;24.58;40.04
80743;SHT31;70142;50.894;6.052;2023-06-14T06:43:41;24.37;39.80
80743;SHT31;70142;50.894;6.052;2023-06-14T06:46:14;24.31;40.14
80743;SHT31;70142;50.894;6.052;2023-06-14T06:48:51;24.41;40.36
80743;SHT31;70142;50.894;6.052;2023-06-14T06:51:24;24.27;39.69
80743;SHT31;70142;50.894;6.052;2023-06-14T06:53:58;24.50;40.04
80743;SHT31;70142;50.894;6.052;2023-06-14T06:56:31;24.09;40.55
80743;SHT31;70142;50.894;6.052;2023-06-14T06:59:05;24.18;40.78
80743;SHT31;70142;50.894;6.052;2023-06-14T07:01:38;24.44;40.06
80743;SHT31;70142;50.894;6.052;2023-06-14T07:04:13;24.74;40.11
80743;SHT31;70142;50.894;6.052;2023-06-14T07:06:47;24.96;39.35
80743;SHT31;70142;50.894;6.052;2023-06-14T07:09:20;25.01;38.22
80743;SHT31;70142;50.894;6.052;2023-06-14T07:11:54;24.78;38.81
80743;SHT31;70142;50.894;6.052;2023-06-14T07:14:27;24.53;39.42
80743;SHT31;70142;50.894;6.052;2023-06-14T07:17:02;24.38;39.67
80743;SHT31;70142;50.894;6.052;2023-06-14T07:19:37;24.47;40.51
80743;SHT31;70142;50.894;6.052;2023-06-14T07:22:13;24.78;39.50
80743;SHT31;70142;50.894;6.052;2023-06-14T07:24:46;24.98;38.79
80743;SHT31;70142;50.894;6.052;2023-06-14T07:27:19;25.09;38.18
80743;SHT31;70142;50.894;6.052;2023-06-14T07:29:52;24.77;39.40
80743;SHT31;70142;50.894;6.052;2023-06-14T07:32:26;25.01;39.47
80743;SHT31;70142;50.894;6.052;2023-06-14T07:35:00;25.23;38.69
80743;SHT31;70142;50.894;6.052;2023-06-14T07:37:34;25.87;37.89
80743;SHT31;70142;50.894;6.052;2023-06-14T07:40:09;25.35;38.50
80743;SHT31;70142;50.894;6.052;2023-06-14T07:42:42;25.36;37.70
80743;SHT31;70142;50.894;6.052;2023-06-14T07:45:16;25.09;38.10
80743;SHT31;70142;50.894;6.052;2023-06-14T07:47:49;25.25;37.66
80743;SHT31;70142;50.894;6.052;2023-06-14T07:50:24;25.60;37.24
80743;SHT31;70142;50.894;6.052;2023-06-14T07:52:58;26.05;37.32
80743;SHT31;70142;50.894;6.052;2023-06-14T07:55:31;26.38;36.79
80743;SHT31;70142;50.894;6.052;2023-06-14T07:58:23;25.76;37.48
80743;SHT31;70142;50.894;6.052;2023-06-14T08:00:56;25.49;37.41
80743;SHT31;70142;50.894;6.052;2023-06-14T08:03:30;25.22;38.29
80743;SHT31;70142;50.894;6.052;2023-06-14T08:06:06;25.87;37.31
80743;SHT31;70142;50.894;6.052;2023-06-14T08:08:40;25.84;37.37
80743;SHT31;70142;50.894;6.052;2023-06-14T08:11:13;25.89;36.99
80743;SHT31;70142;50.894;6.052;2023-06-14T08:13:46;26.24;36.22
80743;SHT31;70142;50.894;6.052;2023-06-14T08:16:19;26.51;35.29
80743;SHT31;70142;50.894;6.052;2023-06-14T08:18:53;26.05;34.93
80743;SHT31;70142;50.894;6.052;2023-06-14T08:21:27;26.05;34.58
80743;SHT31;70142;50.894;6.052;2023-06-14T08:24:01;25.92;35.07
80743;SHT31;70142;50.894;6.052;2023-06-14T08:26:34;26.07;34.82
80743;SHT31;70142;50.894;6.052;2023-06-14T08:29:08;26.47;34.91
80743;SHT31;70142;50.894;6.052;2023-06-14T08:31:41;26.69;34.36
80743;SHT31;70142;50.894;6.052;2023-06-14T08:34:15;26.58;33.71
80743;SHT31;70142;50.894;6.052;2023-06-14T08:36:50;26.07;34.44
80743;SHT31;70142;50.894;6.052;2023-06-14T08:39:23;26.67;34.95
80743;SHT31;70142;50.894;6.052;2023-06-14T08:41:57;27.15;33.42
80743;SHT31;70142;50.894;6.052;2023-06-14T08:44:31;27.10;33.52
80743;SHT31;70142;50.894;6.052;2023-06-14T08:47:06;27.19;33.93
80743;SHT31;70142;50.894;6.052;2023-06-14T08:49:45;27.64;33.00
80743;SHT31;70142;50.894;6.052;2023-06-14T08:52:21;27.49;33.32
80743;SHT31;70142;50.894;6.052;2023-06-14T08:54:55;27.02;32.49
80743;SHT31;70142;50.894;6.052;2023-06-14T08:57:29;26.34;34.39
80743;SHT31;70142;50.894;6.052;2023-06-14T09:00:04;26.49;34.04
80743;SHT31;70142;50.894;6.052;2023-06-14T09:02:43;26.84;33.56
80743;SHT31;70142;50.894;6.052;2023-06-14T09:05:17;27.20;33.14
80743;SHT31;70142;50.894;6.052;2023-06-14T09:07:52;27.39;32.49
80743;SHT31;70142;50.894;6.052;2023-06-14T09:10:27;27.12;33.14
80743;SHT31;70142;50.894;6.052;2023-06-14T09:13:01;27.06;33.38
80743;SHT31;70142;50.894;6.052;2023-06-14T09:15:35;27.28;33.26
80743;SHT31;70142;50.894;6.052;2023-06-14T09:18:08;27.53;33.38
80743;SHT31;70142;50.894;6.052;2023-06-14T09:20:41;27.33;33.06
80743;SHT31;70142;50.894;6.052;2023-06-14T09:23:20;27.47;33.24
80743;SHT31;70142;50.894;6.052;2023-06-14T09:25:54;27.13;33.17
80743;SHT31;70142;50.894;6.052;2023-06-14T09:28:27;27.09;33.23
80743;SHT31;70142;50.894;6.052;2023-06-14T09:31:01;26.28;34.48
80743;SHT31;70142;50.894;6.052;2023-06-14T09:33:34;26.30;34.08
80743;SHT31;70142;50.894;6.052;2023-06-14T09:36:11;26.58;33.79
80743;SHT31;70142;50.894;6.052;2023-06-14T09:38:53;26.88;33.86
80743;SHT31;70142;50.894;6.052;2023-06-14T09:41:34;27.29;33.01
80743;SHT31;70142;50.894;6.052;2023-06-14T09:44:09;27.32;33.02
80743;SHT31;70142;50.894;6.052;2023-06-14T09:46:50;28.10;30.81
80743;SHT31;70142;50.894;6.052;2023-06-14T09:49:24;28.21;30.56
80743;SHT31;70142;50.894;6.052;2023-06-14T09:51:59;27.53;31.95
80743;SHT31;70142;50.894;6.052;2023-06-14T09:54:41;27.12;33.29
80743;SHT31;70142;50.894;6.052;2023-06-14T09:57:16;28.07;31.61
80743;SHT31;70142;50.894;6.052;2023-06-14T09:59:57;28.41;30.81
80743;SHT31;70142;50.894;6.052;2023-06-14T10:02:36;28.48;30.64
80743;SHT31;70142;50.894;6.052;2023-06-14T10:05:15;28.41;30.98
80743;SHT31;70142;50.894;6.052;2023-06-14T10:07:53;28.45;31.52
80743;SHT31;70142;50.894;6.052;2023-06-14T10:10:28;27.63;31.82
80743;SHT31;70142;50.894;6.052;2023-06-14T10:13:01;27.20;32.63
80743;SHT31;70142;50.894;6.052;2023-06-14T10:15:50;27.35;31.41
80743;SHT31;70142;50.894;6.052;2023-06-14T10:18:33;26.85;31.71
80743;SHT31;70142;50.894;6.052;2023-06-14T10:21:16;26.82;31.12
80743;SHT31;70142;50.894;6.052;2023-06-14T10:23:52;26.86;33.19
80743;SHT31;70142;50.894;6.052;2023-06-14T10:26:26;26.96;30.29
80743;SHT31;70142;50.894;6.052;2023-06-14T10:29:01;26.51;30.94
80743;SHT31;70142;50.894;6.052;2023-06-14T10:31:41;26.64;30.98
80743;SHT31;70142;50.894;6.052;2023-06-14T10:34:22;26.62;29.80
80743;SHT31;70142;50.894;6.052;2023-06-14T10:37:03;26.44;28.66
80743;SHT31;70142;50.894;6.052;2023-06-14T10:39:39;26.57;29.21
80743;SHT31;70142;50.894;6.052;2023-06-14T10:42:15;26.78;28.21
80743;SHT31;70142;50.894;6.052;2023-06-14T10:44:52;27.39;27.96
80743;SHT31;70142;50.894;6.052;2023-06-14T10:47:28;27.26;28.89
80743;SHT31;70142;50.894;6.052;2023-06-14T10:50:05;27.15;29.45
80743;SHT31;70142;50.894;6.052;2023-06-14T10:52:41;27.38;28.79
80743;SHT31;70142;50.894;6.052;2023-06-14T10:55:18;27.74;28.05
80743;SHT31;70142;50.894;6.052;2023-06-14T10:57:55;28.07;27.38
80743;SHT31;70142;50.894;6.052;2023-06-14T11:00:33;28.35;28.67
80743;SHT31;70142;50.894;6.052;2023-06-14T11:03:36;28.32;27.73
80743;SHT31;70142;50.894;6.052;2023-06-14T11:06:22;27.54;28.93
80743;SHT31;70142;50.894;6.052;2023-06-14T11:09:14;27.43;29.31
80743;SHT31;70142;50.894;6.052;2023-06-14T11:11:55;27.53;29.28
80743;SHT31;70142;50.894;6.052;2023-06-14T11:14:31;26.94;30.34
80743;SHT31;70142;50.894;6.052;2023-06-14T11:17:05;26.86;29.95
80743;SHT31;70142;50.894;6.052;2023-06-14T11:19:40;26.85;30.75
80743;SHT31;70142;50.894;6.052;2023-06-14T11:22:14;26.96;30.02
80743;SHT31;70142;50.894;6.052;2023-06-14T11:24:48;26.88;30.81
80743;SHT31;70142;50.894;6.052;2023-06-14T11:27:21;27.22;30.51
80743;SHT31;70142;50.894;6.052;2023-06-14T11:29:56;27.77;29.74
80743;SHT31;70142;50.894;6.052;2023-06-14T11:32:31;27.35;30.33
80743;SHT31;70142;50.894;6.052;2023-06-14T11:35:05;27.89;30.29
80743;SHT31;70142;50.894;6.052;2023-06-14T11:37:39;27.50;31.34
80743;SHT31;70142;50.894;6.052;2023-06-14T11:40:13;26.98;31.45
80743;SHT31;70142;50.894;6.052;2023-06-14T11:42:46;27.06;31.29
80743;SHT31;70142;50.894;6.052;2023-06-14T11:45:21;27.22;31.62
80743;SHT31;70142;50.894;6.052;2023-06-14T11:47:55;28.02;30.17
80743;SHT31;70142;50.894;6.052;2023-06-14T11:50:29;27.87;29.28
80743;SHT31;70142;50.894;6.052;2023-06-14T11:53:03;27.91;30.33
80743;SHT31;70142;50.894;6.052;2023-06-14T11:55:39;28.49;30.04
80743;SHT31;70142;50.894;6.052;2023-06-14T11:58:16;28.58;30.01
80743;SHT31;70142;50.894;6.052;2023-06-14T12:00:51;28.56;31.34
80743;SHT31;70142;50.894;6.052;2023-06-14T12:03:26;28.52;30.82
80743;SHT31;70142;50.894;6.052;2023-06-14T12:06:07;27.98;31.38
80743;SHT31;70142;50.894;6.052;2023-06-14T12:08:43;27.13;32.75
80743;SHT31;70142;50.894;6.052;2023-06-14T12:11:17;27.22;33.21
80743;SHT31;70142;50.894;6.052;2023-06-14T12:13:50;27.28;32.24
80743;SHT31;70142;50.894;6.052;2023-06-14T12:16:30;27.36;31.99
80743;SHT31;70142;50.894;6.052;2023-06-14T12:19:09;27.66;31.36
80743;SHT31;70142;50.894;6.052;2023-06-14T12:21:46;27.94;30.50
80743;SHT31;70142;50.894;6.052;2023-06-14T12:24:21;28.66;29.70
80743;SHT31;70142;50.894;6.052;2023-06-14T12:26:54;27.29;31.40
80743;SHT31;70142;50.894;6.052;2023-06-14T12:29:27;27.80;30.93
80743;SHT31;70142;50.894;6.052;2023-06-14T12:32:02;26.85;32.14
80743;SHT31;70142;50.894;6.052;2023-06-14T12:34:36;27.35;31.38
80743;SHT31;70142;50.894;6.052;2023-06-14T12:37:09;26.62;31.91
80743;SHT31;70142;50.894;6.052;2023-06-14T12:39:42;26.86;31.28
80743;SHT31;70142;50.894;6.052;2023-06-14T12:42:15;27.20;30.65
80743;SHT31;70142;50.894;6.052;2023-06-14T12:44:48;27.45;30.65
80743;SHT31;70142;50.894;6.052;2023-06-14T12:47:23;28.11;30.11
80743;SHT31;70142;50.894;6.052;2023-06-14T12:49:56;28.14;29.08
80743;SHT31;70142;50.894;6.052;2023-06-14T12:52:29;28.20;28.23
80743;SHT31;70142;50.894;6.052;2023-06-14T12:55:04;27.87;28.92
80743;SHT31;70142;50.894;6.052;2023-06-14T12:57:37;28.51;29.20
80743;SHT31;70142;50.894;6.052;2023-06-14T13:00:11;27.69;30.50
80743;SHT31;70142;50.894;6.052;2023-06-14T13:02:47;27.67;30.76
80743;SHT31;70142;50.894;6.052;2023-06-14T13:05:20;27.90;29.63
80743;SHT31;70142;50.894;6.052;2023-06-14T13:07:53;28.54;29.69
80743;SHT31;70142;50.894;6.052;2023-06-14T13:10:27;26.48;32.07
80743;SHT31;70142;50.894;6.052;2023-06-14T13:13:00;26.78;30.45
80743;SHT31;70142;50.894;6.052;2023-06-14T13:15:36;27.15;30.82
80743;SHT31;70142;50.894;6.052;2023-06-14T13:18:11;27.63;28.81
80743;SHT31;70142;50.894;6.052;2023-06-14T13:20:45;28.45;28.04
80743;SHT31;70142;50.894;6.052;2023-06-14T13:23:18;28.17;28.52
80743;SHT31;70142;50.894;6.052;2023-06-14T13:25:52;27.38;29.99
80743;SHT31;70142;50.894;6.052;2023-06-14T13:28:25;27.57;30.35
80743;SHT31;70142;50.894;6.052;2023-06-14T13:30:58;28.14;29.17
80743;SHT31;70142;50.894;6.052;2023-06-14T13:33:33;28.28;29.59
80743;SHT31;70142;50.894;6.052;2023-06-14T13:36:06;28.72;29.23
80743;SHT31;70142;50.894;6.052;2023-06-14T13:38:39;29.26;28.65
80743;SHT31;70142;50.894;6.052;2023-06-14T13:41:12;29.74;27.98
80743;SHT31;70142;50.894;6.052;2023-06-14T13:43:46;30.02;28.36
80743;SHT31;70142;50.894;6.052;2023-06-14T13:46:19;30.21;27.55
80743;SHT31;70142;50.894;6.052;2023-06-14T13:48:54;30.24;28.03
80743;SHT31;70142;50.894;6.052;2023-06-14T13:51:27;29.85;28.21
80743;SHT31;70142;50.894;6.052;2023-06-14T13:54:00;30.28;28.97
80743;SHT31;70142;50.894;6.052;2023-06-14T13:56:34;29.96;28.32
80743;SHT31;70142;50.894;6.052;2023-06-14T13:59:08;30.04;28.82
80743;SHT31;70142;50.894;6.052;2023-06-14T14:01:41;30.80;28.13
80743;SHT31;70142;50.894;6.052;2023-06-14T14:04:16;30.92;28.16
80743;SHT31;70142;50.894;6.052;2023-06-14T14:06:49;30.21;28.95
80743;SHT31;70142;50.894;6.052;2023-06-14T14:09:22;30.19;29.57
80743;SHT31;70142;50.894;6.052;2023-06-14T14:11:56;30.21;29.76
80743;SHT31;70142;50.894;6.052;2023-06-14T14:14:31;30.02;30.10
80743;SHT31;70142;50.894;6.052;2023-06-14T14:17:05;30.11;30.63
80743;SHT31;70142;50.894;6.052;2023-06-14T14:19:40;29.90;30.66
80743;SHT31;70142;50.894;6.052;2023-06-14T14:22:13;30.29;30.27
80743;SHT31;70142;50.894;6.052;2023-06-14T14:24:46;30.51;29.78
80743;SHT31;70142;50.894;6.052;2023-06-14T14:27:20;30.07;30.66
80743;SHT31;70142;50.894;6.052;2023-06-14T14:29:54;29.07;31.18
80743;SHT31;70142;50.894;6.052;2023-06-14T14:32:27;29.36;31.39
80743;SHT31;70142;50.894;6.052;2023-06-14T14:35:02;29.10;31.77
80743;SHT31;70142;50.894;6.052;2023-06-14T14:37:35;28.86;32.46
80743;SHT31;70142;50.894;6.052;2023-06-14T14:40:09;29.31;31.15
80743;SHT31;70142;50.894;6.052;2023-06-14T14:42:43;29.73;30.71
80743;SHT31;70142;50.894;6.052;2023-06-14T14:45:19;29.85;31.38
80743;SHT31;70142;50.894;6.052;2023-06-14T14:47:52;29.45;31.94
80743;SHT31;70142;50.894;6.052;2023-06-14T14:50:28;29.38;31.66
80743;SHT31;70142;50.894;6.052;2023-06-14T14:53:02;29.70;31.91
80743;SHT31;70142;50.894;6.052;2023-06-14T14:55:35;29.34;32.54
80743;SHT31;70142;50.894;6.052;2023-06-14T14:58:09;29.49;32.37
80743;SHT31;70142;50.894;6.052;2023-06-14T15:00:42;29.45;31.74
80743;SHT31;70142;50.894;6.052;2023-06-14T15:03:16;29.64;31.34
80743;SHT31;70142;50.894;6.052;2023-06-14T15:05:50;29.19;31.72
80743;SHT31;70142;50.894;6.052;2023-06-14T15:08:24;28.47;32.74
80743;SHT31;70142;50.894;6.052;2023-06-14T15:10:57;29.25;32.46
80743;SHT31;70142;50.894;6.052;2023-06-14T15:13:30;28.75;32.53
80743;SHT31;70142;50.894;6.052;2023-06-14T15:16:06;28.59;32.92
80743;SHT31;70142;50.894;6.052;2023-06-14T15:18:39;29.31;31.94
80743;SHT31;70142;50.894;6.052;2023-06-14T15:21:14;29.92;31.34
80743;SHT31;70142;50.894;6.052;2023-06-14T15:23:47;29.53;31.48
80743;SHT31;70142;50.894;6.052;2023-06-14T15:26:22;29.63;31.15
80743;SHT31;70142;50.894;6.052;2023-06-14T15:28:56;29.49;31.05
80743;SHT31;70142;50.894;6.052;2023-06-14T15:31:29;28.86;32.50
80743;SHT31;70142;50.894;6.052;2023-06-14T15:34:03;29.30;31.05
80743;SHT31;70142;50.894;6.052;2023-06-14T15:36:37;29.19;31.40
80743;SHT31;70142;50.894;6.052;2023-06-14T15:39:10;28.65;32.53
80743;SHT31;70142;50.894;6.052;2023-06-14T15:41:44;28.65;32.00
80743;SHT31;70142;50.894;6.052;2023-06-14T15:44:18;28.51;31.81
80743;SHT31;70142;50.894;6.052;2023-06-14T15:46:51;28.35;32.63
80743;SHT31;70142;50.894;6.052;2023-06-14T15:49:24;28.31;33.36
80743;SHT31;70142;50.894;6.052;2023-06-14T15:51:59;28.22;33.12
80743;SHT31;70142;50.894;6.052;2023-06-14T15:54:33;28.37;33.09
80743;SHT31;70142;50.894;6.052;2023-06-14T15:57:07;28.61;33.06
80743;SHT31;70142;50.894;6.052;2023-06-14T15:59:40;28.34;33.12
80743;SHT31;70142;50.894;6.052;2023-06-14T16:02:14;28.42;32.59
80743;SHT31;70142;50.894;6.052;2023-06-14T16:04:47;28.47;31.89
80743;SHT31;70142;50.894;6.052;2023-06-14T16:07:24;29.38;30.84
80743;SHT31;70142;50.894;6.052;2023-06-14T16:09:59;29.88;29.62
80743;SHT31;70142;50.894;6.052;2023-06-14T16:12:32;29.88;29.79
80743;SHT31;70142;50.894;6.052;2023-06-14T16:15:07;30.04;28.96
80743;SHT31;70142;50.894;6.052;2023-06-14T16:17:40;29.56;29.96